Time;durP1;ratioP1;P1;durP2;ratioP2;P2;SDS_P1;SDS_P2;PMS_P1;PMS_P2;Temp;Humidity;BMP_temperature;BMP_pressure;BME280_temperature;BME280_humidity;BME280_pressure;Samples;Min_cycle;Max_cycle;Signal;HPM_P1;HPM_P2
2023/06/12 00:03:25;;;;;;;5.10;3.40;;;;;;;13.35;63.28;99997.05;436482;1262;138954;-76
2023/06/12 00:13:29;;;;;;;4.40;3.20;;;;;;;13.23;63.83;99995.62;436413;1262;140027;-76
2023/06/12 00:23:31;;;;;;;5.00;3.90;;;;;;;13.11;64.41;99993.79;436288;1260;138830;-76
2023/06/12 00:33:34;;;;;;;5.60;4.30;;;;;;;13.01;65.00;99989.17;436316;1262;139996;-75
2023/06/12 00:43:39;;;;;;;4.10;3.70;;;;;;;12.90;65.53;99987.61;437005;1260;139139;-75
2023/06/12 00:53:42;;;;;;;3.90;3.60;;;;;;;12.82;66.03;99987.48;436965;1260;140146;-76
2023/06/12 01:03:45;;;;;;;4.00;3.50;;;;;;;12.75;66.40;99984.09;436904;1257;138599;-75
2023/06/12 01:13:48;;;;;;;5.90;4.00;;;;;;;12.65;66.81;99979.63;438234;1254;138895;-75
2023/06/12 01:24:12;;;;;;;5.50;3.80;;;;;;;12.57;67.20;99981.23;438414;1254;138910;-74
2023/06/12 01:34:20;;;;;;;6.20;3.10;;;;;;;12.44;67.64;99980.27;438337;1254;138529;-77
2023/06/12 01:44:23;;;;;;;4.10;3.50;;;;;;;12.31;67.96;99976.75;438800;1256;138611;-75
2023/06/12 01:54:27;;;;;;;3.40;3.10;;;;;;;12.13;67.94;99983.48;438242;1253;140076;-75
2023/06/12 02:04:30;;;;;;;5.20;3.60;;;;;;;11.95;68.24;99987.05;438596;1254;138610;-74
2023/06/12 02:14:33;;;;;;;5.20;3.80;;;;;;;11.79;68.68;99983.34;438512;1253;138989;-74
2023/06/12 02:24:37;;;;;;;6.40;3.70;;;;;;;11.63;68.82;99989.73;438109;1256;139202;-74
2023/06/12 02:34:40;;;;;;;5.30;3.50;;;;;;;11.47;68.76;99995.63;437971;1253;138894;-75
2023/06/12 02:44:43;;;;;;;6.80;4.40;;;;;;;11.41;69.17;99994.09;438134;1253;139714;-74
2023/06/12 02:54:46;;;;;;;4.90;3.50;;;;;;;11.72;69.90;100001.17;438443;1253;139459;-73
2023/06/12 03:04:49;;;;;;;5.80;3.40;;;;;;;12.91;69.24;99998.27;438444;1256;138453;-75
2023/06/12 03:14:52;;;;;;;4.40;2.70;;;;;;;15.51;66.19;99997.52;438264;1255;139388;-75
2023/06/12 03:24:56;;;;;;;3.70;3.00;;;;;;;16.92;61.83;99993.40;438452;1256;139210;-74
2023/06/12 03:34:59;;;;;;;3.70;2.60;;;;;;;18.53;58.28;99992.02;438284;1254;138138;-75
2023/06/12 03:45:02;;;;;;;5.80;2.80;;;;;;;18.10;56.47;99991.56;438380;1256;138997;-75
2023/06/12 03:55:07;;;;;;;5.40;2.40;;;;;;;17.97;56.68;99999.73;438812;1255;138098;-76
2023/06/12 04:05:10;;;;;;;5.40;2.30;;;;;;;23.21;51.90;100002.39;438799;1256;137713;-76
2023/06/12 04:15:13;;;;;;;5.20;2.90;;;;;;;27.33;44.03;100006.81;438604;1256;137837;-77
2023/06/12 04:25:16;;;;;;;3.60;2.80;;;;;;;29.87;38.88;99998.88;438465;1256;140110;-78
2023/06/12 04:35:19;;;;;;;5.00;2.70;;;;;;;32.69;34.78;99999.15;438897;1256;139026;-77
2023/06/12 04:45:22;;;;;;;3.70;2.50;;;;;;;35.54;30.74;99998.89;438630;1253;137641;-78
2023/06/12 04:55:28;;;;;;;3.80;3.40;;;;;;;37.32;27.25;100005.42;438386;1256;139067;-78
2023/06/12 05:05:31;;;;;;;2.40;2.10;;;;;;;37.53;25.57;100010.73;438499;1254;138145;-76
2023/06/12 05:15:34;;;;;;;3.40;2.20;;;;;;;39.60;23.69;100005.27;438694;1256;138486;-79
2023/06/12 05:25:37;;;;;;;3.00;2.10;;;;;;;41.55;21.77;99998.13;438464;1254;139285;-79
2023/06/12 05:35:41;;;;;;;;;;;;;;;42.27;19.89;100001.77;438346;1256;138499;-78
2023/06/12 05:45:44;;;;;;;3.40;1.90;;;;;;;42.60;18.92;99995.60;438425;1256;125611;-77
2023/06/12 05:55:47;;;;;;;5.70;2.00;;;;;;;43.30;18.02;99993.52;438607;1255;139481;-78
2023/06/12 06:05:51;;;;;;;3.00;2.20;;;;;;;45.14;16.72;99999.52;438537;1256;138735;-78
2023/06/12 06:15:54;;;;;;;1.70;1.10;;;;;;;45.23;15.35;100001.61;438500;1254;138914;-77
2023/06/12 06:25:57;;;;;;;2.80;1.40;;;;;;;45.64;13.84;100010.95;438149;1257;138564;-78
2023/06/12 06:36:00;;;;;;;3.00;1.50;;;;;;;46.21;12.82;100014.61;438392;1255;138715;-78
2023/06/12 06:46:03;;;;;;;2.10;1.50;;;;;;;45.98;12.55;100012.84;438642;1256;137832;-78
2023/06/12 06:56:09;;;;;;;3.60;1.30;;;;;;;46.29;11.87;100017.81;439319;1256;137975;-79
2023/06/12 07:06:12;;;;;;;2.20;1.00;;;;;;;46.63;11.05;100012.38;440116;1253;137767;-78
2023/06/12 07:16:16;;;;;;;3.10;1.50;;;;;;;45.89;10.73;100012.25;440855;1254;138846;-77
2023/06/12 07:26:20;;;;;;;11.20;2.00;;;;;;;45.56;10.73;100011.46;439146;1253;153699;-78
2023/06/12 07:36:35;;;;;;;4.00;1.90;;;;;;;46.50;10.67;100002.08;438924;1256;138607;-77
2023/06/12 07:46:38;;;;;;;4.90;1.30;;;;;;;45.17;10.70;100000.47;438963;1256;137836;-68
2023/06/12 07:56:44;;;;;;;2.60;1.20;;;;;;;39.52;11.93;99994.45;438806;1256;138128;-70
2023/06/12 08:06:47;;;;;;;5.30;1.10;;;;;;;32.36;14.84;99997.89;436253;1256;137815;-69
2023/06/12 08:16:51;;;;;;;3.40;1.20;;;;;;;29.01;17.19;99988.35;436006;1256;138826;-68
2023/06/12 08:26:54;;;;;;;6.10;1.00;;;;;;;26.74;19.06;99993.29;436655;1251;138771;-68
2023/06/12 08:36:57;;;;;;;2.50;1.30;;;;;;;25.77;20.08;99981.33;435712;1251;139335;-68
2023/06/12 08:47:02;;;;;;;1.60;1.10;;;;;;;25.05;20.77;99975.63;436095;1255;139353;-68
2023/06/12 08:57:07;;;;;;;3.70;1.20;;;;;;;24.61;21.59;99979.20;436282;1251;137870;-70
2023/06/12 09:07:17;;;;;;;5.40;0.90;;;;;;;24.27;21.84;99977.58;436476;1251;138737;-71
2023/06/12 09:17:28;;;;;;;3.30;0.90;;;;;;;23.87;22.11;99973.48;438839;1254;139696;-73
2023/06/12 09:27:40;;;;;;;2.40;1.10;;;;;;;23.83;22.33;99973.57;438859;1254;137747;-70
2023/06/12 09:37:43;;;;;;;2.40;1.00;;;;;;;23.43;22.83;99962.73;436654;1251;137897;-70
2023/06/12 09:47:48;;;;;;;2.70;1.30;;;;;;;23.22;22.91;99968.25;436141;1254;137828;-69
2023/06/12 09:57:52;;;;;;;3.60;1.20;;;;;;;22.78;23.13;99970.58;437652;1256;137917;-70
2023/06/12 10:07:59;;;;;;;1.30;1.00;;;;;;;22.50;23.72;99957.33;435947;1255;138758;-71
2023/06/12 10:18:03;;;;;;;2.90;1.10;;;;;;;22.35;24.02;99946.68;438743;1253;138540;-71
2023/06/12 10:28:08;;;;;;;4.00;2.10;;;;;;;21.90;24.52;99945.52;438914;1254;138934;-71
2023/06/12 10:38:12;;;;;;;5.40;1.20;;;;;;;21.50;24.97;99929.89;438884;1255;138755;-71
2023/06/12 10:48:17;;;;;;;5.20;1.40;;;;;;;21.33;25.86;99929.68;438878;1254;138812;-72
2023/06/12 10:58:21;;;;;;;3.30;1.50;;;;;;;21.26;25.99;99919.95;435953;1256;138313;-70
2023/06/12 11:08:27;;;;;;;2.40;1.10;;;;;;;21.14;26.70;99926.00;439271;1253;138050;-71
2023/06/12 11:18:31;;;;;;;1.60;1.50;;;;;;;21.18;27.04;99912.06;438616;1251;138299;-72
2023/06/12 11:28:34;;;;;;;1.80;1.40;;;;;;;21.27;26.99;99904.52;438480;1251;138168;-71
2023/06/12 11:38:37;;;;;;;5.50;1.50;;;;;;;21.51;26.82;99885.48;438869;1253;138278;-71
2023/06/12 11:48:43;;;;;;;2.60;1.50;;;;;;;21.55;27.08;99868.79;438743;1251;137975;-71
2023/06/12 11:58:52;;;;;;;4.10;1.50;;;;;;;21.56;27.19;99868.58;438502;1253;137729;-71
2023/06/12 12:08:56;;;;;;;7.60;1.60;;;;;;;21.57;27.07;99862.72;438550;1251;137756;-70
2023/06/12 12:18:59;;;;;;;8.10;1.50;;;;;;;21.29;27.26;99861.40;436984;1252;138480;-71
2023/06/12 12:29:02;;;;;;;4.00;2.00;;;;;;;21.40;26.91;99848.38;437099;1255;138896;-70
2023/06/12 12:39:06;;;;;;;3.60;1.80;;;;;;;21.69;27.02;99837.84;436735;1255;138470;-69
2023/06/12 12:49:11;;;;;;;4.80;1.40;;;;;;;21.77;27.01;99831.95;435842;1253;138886;-70
2023/06/12 12:59:14;;;;;;;2.90;1.60;;;;;;;21.56;27.26;99821.34;436046;1253;137967;-70
2023/06/12 13:09:17;;;;;;;3.40;1.10;;;;;;;21.67;27.07;99817.17;435986;1255;138291;-71
2023/06/12 13:19:20;;;;;;;3.00;1.60;;;;;;;21.66;27.01;99807.67;435846;1251;139732;-70
2023/06/12 13:29:23;;;;;;;3.80;1.50;;;;;;;21.74;26.80;99796.11;435953;1251;138448;-71
2023/06/12 13:39:26;;;;;;;3.50;1.50;;;;;;;21.68;26.77;99801.36;435902;1255;138728;-71
2023/06/12 13:49:30;;;;;;;4.90;1.10;;;;;;;21.55;26.57;99790.64;438252;1252;138282;-69
2023/06/12 13:59:33;;;;;;;4.50;1.20;;;;;;;21.60;26.30;99778.00;435872;1253;139602;-71
2023/06/12 14:09:36;;;;;;;5.40;2.10;;;;;;;21.75;26.34;99773.02;435647;1255;137983;-70
2023/06/12 14:19:39;;;;;;;2.40;1.50;;;;;;;21.75;26.50;99774.86;438236;1256;138439;-70
2023/06/12 14:29:42;;;;;;;3.30;1.60;;;;;;;21.78;26.26;99760.45;437489;1254;138780;-71
2023/06/12 14:39:45;;;;;;;5.30;1.30;;;;;;;21.69;26.34;99768.33;439506;1251;138017;-70
2023/06/12 14:49:48;;;;;;;2.70;1.10;;;;;;;21.36;26.61;99768.29;437887;1253;138518;-69
2023/06/12 14:59:51;;;;;;;2.20;1.50;;;;;;;21.25;26.61;99767.90;437086;1253;140088;-69
2023/06/12 15:09:54;;;;;;;2.00;1.40;;;;;;;21.14;26.82;99764.52;438861;1253;137977;-69
2023/06/12 15:19:57;;;;;;;2.20;1.10;;;;;;;21.37;26.54;99758.21;436613;1251;137924;-71
2023/06/12 15:30:01;;;;;;;2.00;1.30;;;;;;;21.50;26.26;99750.80;438689;1253;141152;-72
2023/06/12 15:40:07;;;;;;;5.20;1.70;;;;;;;21.43;26.67;99753.04;438807;1252;138746;-71
2023/06/12 15:50:10;;;;;;;3.10;1.40;;;;;;;21.18;26.80;99743.28;438914;1251;138712;-70
2023/06/12 16:00:15;;;;;;;2.40;1.20;;;;;;;21.06;26.95;99736.36;438423;1253;138509;-71
2023/06/12 16:10:18;;;;;;;2.80;1.70;;;;;;;21.02;27.10;99735.92;439026;1255;137889;-70
2023/06/12 16:20:22;;;;;;;6.20;1.90;;;;;;;20.84;26.97;99733.84;438489;1251;139228;-71
2023/06/12 16:30:25;;;;;;;7.00;2.00;;;;;;;20.51;27.27;99732.27;438601;1256;139393;-72
2023/06/12 16:40:28;;;;;;;4.90;1.70;;;;;;;20.67;27.28;99728.18;438837;1253;138983;-72
2023/06/12 16:50:31;;;;;;;2.00;1.60;;;;;;;21.07;27.36;99724.01;438928;1255;138268;-71
2023/06/12 17:00:34;;;;;;;2.70;1.40;;;;;;;20.85;27.35;99728.41;438741;1252;138751;-71
2023/06/12 17:10:38;;;;;;;1.60;1.40;;;;;;;20.27;27.91;99731.34;438823;1253;137725;-71
2023/06/12 17:20:41;;;;;;;1.90;1.50;;;;;;;19.89;28.48;99721.87;438748;1253;138703;-71
2023/06/12 17:30:44;;;;;;;4.00;1.50;;;;;;;19.70;28.68;99724.95;438452;1255;137895;-72
2023/06/12 17:40:47;;;;;;;3.40;1.80;;;;;;;19.52;28.97;99726.05;438561;1254;137816;-72
2023/06/12 17:50:50;;;;;;;1.40;1.30;;;;;;;19.31;29.16;99727.69;438561;1252;138593;-70
2023/06/12 18:00:54;;;;;;;2.50;2.30;;;;;;;19.10;29.31;99722.48;438514;1252;139967;-71
2023/06/12 18:10:59;;;;;;;1.70;1.40;;;;;;;18.98;29.50;99724.17;438885;1255;140971;-72
2023/06/12 18:21:02;;;;;;;3.80;2.00;;;;;;;18.64;29.94;99722.41;438897;1253;137942;-71
2023/06/12 18:31:05;;;;;;;3.70;1.70;;;;;;;18.32;30.20;99719.39;439118;1254;138712;-71
2023/06/12 18:41:09;;;;;;;7.90;2.30;;;;;;;17.96;30.73;99730.54;438943;1252;137963;-72
2023/06/12 18:51:12;;;;;;;3.00;2.00;;;;;;;17.61;31.37;99734.26;438485;1253;138271;-72
2023/06/12 19:01:15;;;;;;;4.00;2.00;;;;;;;17.28;32.08;99735.63;438626;1253;138973;-72
2023/06/12 19:11:18;;;;;;;4.20;2.50;;;;;;;16.92;32.89;99731.55;438798;1253;138368;-73
2023/06/12 19:21:23;;;;;;;4.70;1.70;;;;;;;16.60;33.50;99733.39;438585;1255;139086;-71
2023/06/12 19:31:26;;;;;;;5.40;1.90;;;;;;;16.30;34.11;99737.77;438466;1253;141048;-72
2023/06/12 19:41:29;;;;;;;6.20;2.30;;;;;;;16.06;34.76;99752.49;438824;1252;137801;-71
2023/06/12 19:51:33;;;;;;;3.70;2.30;;;;;;;15.81;37.68;99785.56;438713;1254;139214;-71
2023/06/12 20:01:36;;;;;;;5.10;2.10;;;;;;;15.18;40.02;99789.93;438636;1254;138020;-72
2023/06/12 20:11:39;;;;;;;5.60;2.60;;;;;;;14.66;42.11;99793.27;438885;1251;138826;-72
2023/06/12 20:21:42;;;;;;;5.30;1.90;;;;;;;14.25;43.61;99787.98;437687;1255;138668;-72
2023/06/12 20:31:45;;;;;;;3.90;1.80;;;;;;;13.91;44.85;99791.92;438660;1253;140197;-72
2023/06/12 20:41:48;;;;;;;3.30;1.70;;;;;;;13.60;46.18;99798.20;438649;1255;138290;-71
2023/06/12 20:51:51;;;;;;;3.30;1.70;;;;;;;13.32;47.14;99796.35;436090;1256;140568;-72
2023/06/12 21:01:55;;;;;;;1.70;1.50;;;;;;;13.06;47.93;99806.13;438905;1255;137964;-71
2023/06/12 21:11:58;;;;;;;6.20;1.40;;;;;;;12.77;48.62;99809.32;436945;1253;139025;-71
2023/06/12 21:22:01;;;;;;;1.30;0.90;;;;;;;12.52;48.73;99822.08;436099;1253;137998;-71
2023/06/12 21:32:06;;;;;;;1.70;1.30;;;;;;;12.26;48.76;99831.77;437976;1256;138271;-71
2023/06/12 21:42:10;;;;;;;2.00;1.90;;;;;;;11.99;48.84;99825.63;436271;1254;139404;-70
2023/06/12 21:52:13;;;;;;;1.20;0.80;;;;;;;11.79;49.06;99829.16;436434;1255;137936;-70
2023/06/12 22:02:16;;;;;;;0.60;0.50;;;;;;;11.53;49.41;99829.77;436003;1254;140095;-70
2023/06/12 22:12:19;;;;;;;0.90;0.70;;;;;;;11.31;49.95;99827.64;436164;1254;138752;-70
2023/06/12 22:22:23;;;;;;;6.50;1.00;;;;;;;11.13;50.51;99829.86;436053;1254;138511;-69
2023/06/12 22:32:26;;;;;;;2.20;0.70;;;;;;;11.00;51.03;99833.93;436561;1255;138477;-71
2023/06/12 22:42:29;;;;;;;1.20;0.60;;;;;;;10.95;51.20;99830.96;436410;1255;139625;-70
2023/06/12 22:52:33;;;;;;;0.90;0.80;;;;;;;10.87;51.81;99822.80;436129;1253;137811;-71
2023/06/12 23:02:36;;;;;;;0.90;0.70;;;;;;;10.69;52.35;99818.67;436210;1254;137988;-71
2023/06/12 23:12:39;;;;;;;1.50;0.70;;;;;;;10.56;52.92;99814.90;436125;1255;138666;-69
2023/06/12 23:22:51;;;;;;;0.50;0.50;;;;;;;10.61;53.33;99807.25;436134;1252;138109;-70
2023/06/12 23:32:55;;;;;;;3.00;1.20;;;;;;;10.63;53.51;99798.02;435916;1253;138500;-70
2023/06/12 23:42:59;;;;;;;1.60;1.00;;;;;;;10.61;53.81;99800.10;435978;1254;139687;-70
2023/06/12 23:53:01;;;;;;;2.50;0.60;;;;;;;10.63;54.09;99798.39;435984;1254;138523;-70
